Pulpca — PHMT — position and weather

sailwx.info

Track history (hours):
 
Tides and Currents Weather Stations Pressure Air Temp Water Temp Dewpoint Dewpoint Depression Visibility Wind Speed Wind Dir Waves Ship Positions

Pulpca

Last reported at 2017-May-29 09:30 UTC. Time now 2017-May-29 09:50 UTC.
Position N 55°42' E 006°38'.

Length 205 m; draft 7.5 m.

Type: Ship (hazmat cat A). MMSI: 245097000.

Date/timePositionNaut miles runAvg speedWind from/ knotsBaromVisibWave heightAir tempDewpointWater temp
2017-May-29 09:30N 55°42' E 006°38'815.4
2017-May-29 09:00N 55°49' E 006°45'815.5
2017-May-29 08:30N 55°55' E 006°52'815.4
2017-May-29 08:00N 56°02' E 006°59'815.4
2017-May-29 07:30N 56°09' E 007°06'815.5
2017-May-29 06:59N 56°15' E 007°13'815.5
2017-May-29 06:29N 56°22' E 007°21'815.8
2017-May-29 05:59N 56°29' E 007°28'715.6
2017-May-29 05:30N 56°35' E 007°35'815.4
2017-May-29 05:00N 56°42' E 007°43'715.2
2017-May-29 04:30N 56°48' E 007°50'815.6
2017-May-29 04:00N 56°55' E 007°57'815.6
2017-May-29 03:30N 57°02' E 008°04'815.6
2017-May-29 02:59N 57°07' E 008°15'815.6
2017-May-29 02:29N 57°12' E 008°27'815.7
2017-May-29 01:57N 57°16' E 008°39'815.6
2017-May-29 01:27N 57°20' E 008°52'715.6
2017-May-29 00:58N 57°24' E 009°04'715.4
2017-May-29 00:29N 57°29' E 009°15'815.3
2017-May-29 00:00N 57°33' E 009°27'715.3
2017-May-28 23:30N 57°37' E 009°38'815.1
2017-May-28 22:59N 57°40' E 009°52'714.7
2017-May-28 22:30N 57°43' E 010°04'714.6
2017-May-28 22:00N 57°48' E 010°14'714.9
2017-May-28 21:30N 57°49' E 010°28'815.2
2017-May-28 21:00N 57°49' E 010°42'714.6
2017-May-28 20:30N 57°45' E 010°54'815.5
2017-May-28 20:00N 57°40' E 011°04'815.2
2017-May-28 19:30N 57°35' E 011°14'815.0
2017-May-28 19:00N 57°30' E 011°25'815.2
2017-May-28 18:30N 57°23' E 011°31'815.3
2017-May-28 18:00N 57°16' E 011°36'815.1
2017-May-28 17:30N 57°08' E 011°40'815.3
2017-May-28 17:00N 57°01' E 011°45'5315.1
2017-May-28 13:30N 56°14' E 012°27'816.0
2017-May-28 13:00N 56°07' E 012°33'917.2
2017-May-28 12:30N 55°59' E 012°42'918.4
2017-May-28 12:00N 55°50' E 012°44'918.4
2017-May-28 11:30N 55°41' E 012°41'611.2
2017-May-28 11:01N 55°36' E 012°42'5 9.1
2017-May-28 10:30N 55°31' E 012°42'917.3
2017-May-28 10:00N 55°23' E 012°40'815.4
2017-May-28 09:30N 55°16' E 012°48'1019.3
2017-May-28 09:00N 55°16' E 013°05'1019.9
2017-May-28 08:31N 55°15' E 013°22'1019.5
2017-May-28 08:00N 55°15' E 013°40'1020.1
2017-May-28 07:30N 55°14' E 013°57'1020.6
2017-May-28 07:01N 55°14' E 014°15'1020.1
2017-May-28 06:30N 55°22' E 014°26'1019.8
2017-May-28 06:00N 55°28' E 014°40'1020.2
2017-May-28 05:30N 55°33' E 014°56'1020.1
2017-May-28 05:00N 55°38' E 015°11'1020.5
2017-May-28 04:31N 55°43' E 015°27'1020.0
2017-May-28 04:00N 55°48' E 015°43'1020.5
2017-May-28 03:30N 55°53' E 015°58'1020.6
2017-May-28 03:00N 55°58' E 016°14'1020.6
2017-May-28 02:30N 56°03' E 016°30'1020.4
2017-May-28 02:00N 56°08' E 016°46'1020.2
2017-May-28 01:30N 56°15' E 016°60'1020.3
2017-May-28 01:00N 56°21' E 017°14'1020.4
2017-May-28 00:30N 56°27' E 017°29'1120.3
2017-May-27 23:58N 56°34' E 017°45'920.3
2017-May-27 23:30N 56°39' E 017°58'22720.3
2017-May-27 12:18N 59°32' E 022°38'621.1
2017-May-27 12:00N 59°36' E 022°48'1020.8
2017-May-27 11:30N 59°42' E 023°04'91 6.4
2017-May-26 21:12N 60°01' E 026°02'316.5
2017-May-26 21:00N 60°03' E 026°07'917.7
2017-May-26 20:30N 60°09' E 026°20'1019.0
2017-May-26 20:00N 60°17' E 026°31'713.1
2017-May-26 19:30N 60°21' E 026°40'4 8.8
2017-May-26 19:00N 60°23' E 026°48'612.4
2017-May-26 18:30N 60°27' E 026°58'2 4.8
2017-May-26 18:00N 60°29' E 026°57'0 0.0
2017-May-26 17:28N 60°29' E 026°57'0 0.0
2017-May-26 16:58N 60°29' E 026°57'0 0.0
2017-May-26 16:28N 60°29' E 026°57'0 0.0
2017-May-26 15:58N 60°29' E 026°57'0 0.0
2017-May-26 15:28N 60°29' E 026°57'0 0.0
2017-May-26 14:58N 60°29' E 026°57'0 0.0
2017-May-26 14:28N 60°29' E 026°57'0 0.0
2017-May-26 13:28N 60°29' E 026°57'0 0.0
2017-May-26 12:58N 60°29' E 026°57'0 0.0
2017-May-26 12:28N 60°29' E 026°57'0 0.0
2017-May-26 11:58N 60°29' E 026°57'0 0.0
2017-May-26 11:28N 60°29' E 026°57'0 0.0
2017-May-26 10:58N 60°29' E 026°57'0 0.0
2017-May-26 10:28N 60°29' E 026°57'0 0.0
2017-May-26 09:58N 60°29' E 026°57'0 0.0
2017-May-26 09:28N 60°29' E 026°57'0 0.0
2017-May-26 08:55N 60°29' E 026°57'0 0.0
2017-May-26 08:28N 60°29' E 026°57'0 0.0
2017-May-26 07:58N 60°29' E 026°57'0 0.0
2017-May-26 07:28N 60°29' E 026°57'0 0.0
2017-May-26 06:58N 60°29' E 026°57'0 0.0
2017-May-26 06:28N 60°29' E 026°57'0 0.0
2017-May-26 05:58N 60°29' E 026°57'0 0.0
2017-May-26 05:28N 60°29' E 026°57'0 0.0
2017-May-26 04:58N 60°29' E 026°57'0 0.0
2017-May-26 04:28N 60°29' E 026°57'0 0.0
2017-May-26 03:58N 60°29' E 026°57'0 0.0
2017-May-26 03:28N 60°29' E 026°57'0 0.0
2017-May-26 02:58N 60°29' E 026°57'0 0.0
2017-May-26 02:28N 60°29' E 026°57'0 0.0
2017-May-26 01:58N 60°29' E 026°57'0 0.0
2017-May-26 01:28N 60°29' E 026°57'0 0.0
2017-May-26 00:58N 60°29' E 026°57'0 0.0
2017-May-26 00:28N 60°29' E 026°57'0 0.0
2017-May-25 23:58N 60°29' E 026°57'0 0.0
2017-May-25 23:28N 60°29' E 026°57'0 0.0
2017-May-25 22:58N 60°29' E 026°57'0 0.0
2017-May-25 22:28N 60°29' E 026°57'0 0.0
2017-May-25 21:58N 60°29' E 026°57'0 0.0
2017-May-25 21:28N 60°29' E 026°57'0 0.0
2017-May-25 20:58N 60°29' E 026°57'0 0.0
2017-May-25 20:28N 60°29' E 026°57'0 0.0
2017-May-25 19:58N 60°29' E 026°57'0 0.0
2017-May-25 19:28N 60°29' E 026°57'0 0.0
2017-May-25 18:58N 60°29' E 026°57'0 0.0
2017-May-25 18:28N 60°29' E 026°57'0 0.0
2017-May-25 17:55N 60°29' E 026°57'0 0.0
2017-May-25 17:25N 60°29' E 026°57'0 0.0
2017-May-25 16:58N 60°29' E 026°57'0 0.0
2017-May-25 16:28N 60°29' E 026°57'0 0.0
2017-May-25 15:58N 60°29' E 026°57'0 0.0
2017-May-25 15:28N 60°29' E 026°57'0 0.0
2017-May-25 14:58N 60°29' E 026°57'0 0.0
2017-May-25 13:58N 60°29' E 026°57'0 0.0
2017-May-25 13:28N 60°29' E 026°57'0 0.0
2017-May-25 12:58N 60°29' E 026°57'0 0.0
2017-May-25 12:28N 60°29' E 026°57'0 0.0
2017-May-25 11:58N 60°29' E 026°57'0 0.0
2017-May-25 11:28N 60°29' E 026°57'0 0.0
2017-May-25 10:58N 60°29' E 026°57'0 0.0
2017-May-25 10:28N 60°29' E 026°57'0 0.0
2017-May-25 09:58N 60°29' E 026°57'0 0.0
2017-May-25 09:28N 60°29' E 026°57'0 0.0
2017-May-25 09:00N 60°29' E 026°57'0 0.4
2017-May-25 08:30N 60°29' E 026°57'5 9.1
2017-May-25 08:01N 60°25' E 026°54'714.3
2017-May-25 07:31N 60°22' E 026°41'714.4
2017-May-25 07:01N 60°17' E 026°31'713.7
2017-May-25 06:31N 60°11' E 026°24'714.1
2017-May-25 06:00N 60°07' E 026°35'714.2
2017-May-25 05:30N 60°03' E 026°47'713.5
2017-May-25 05:00N 59°60' E 026°59'613.1
2017-May-25 04:30N 60°02' E 027°12'713.9
2017-May-25 04:00N 60°05' E 027°23'714.3
2017-May-25 03:30N 60°09' E 027°36'714.0
2017-May-25 03:00N 60°12' E 027°49'814.8
2017-May-25 02:29N 60°10' E 028°03'714.4
2017-May-25 02:00N 60°08' E 028°17'714.2
2017-May-25 01:30N 60°04' E 028°29'714.2
2017-May-25 01:00N 60°03' E 028°43'714.3
2017-May-25 00:30N 60°03' E 028°57'714.4
2017-May-25 00:00N 60°02' E 029°12'813.1
2017-May-24 23:24N 60°02' E 029°28'512.3
2017-May-24 23:00N 60°00' E 029°37'611.1
2017-May-24 22:30N 59°58' E 029°47'611.4
2017-May-24 22:00N 59°56' E 029°58'510.8
2017-May-24 21:30N 59°54' E 030°08'3 6.1
2017-May-24 21:00N 59°54' E 030°14'0 0.0
2017-May-24 20:30N 59°54' E 030°14'0 0.0
2017-May-24 20:00N 59°54' E 030°14'0 0.0
2017-May-24 19:25N 59°54' E 030°14'0 0.0
2017-May-24 18:58N 59°54' E 030°14'0 0.0
2017-May-24 18:28N 59°54' E 030°14'0 0.0
2017-May-24 17:58N 59°54' E 030°14'0 0.0
2017-May-24 17:28N 59°54' E 030°14'0 0.0
2017-May-24 16:58N 59°54' E 030°14'0 0.0
2017-May-24 16:28N 59°54' E 030°14'0 0.0
2017-May-24 15:58N 59°54' E 030°14'0 0.0
2017-May-24 15:28N 59°54' E 030°14'0 0.0
2017-May-24 14:55N 59°54' E 030°14'0 0.0
2017-May-24 14:28N 59°54' E 030°14'0 0.0
2017-May-24 13:28N 59°54' E 030°14'0 0.0
2017-May-24 12:58N 59°54' E 030°14'0 0.0
2017-May-24 12:28N 59°54' E 030°14'0 0.0
2017-May-24 11:58N 59°54' E 030°14'0 0.0
2017-May-24 11:28N 59°54' E 030°14'0 0.0
2017-May-24 10:58N 59°54' E 030°14'0 0.0
2017-May-24 10:28N 59°54' E 030°14'0 0.0
2017-May-24 09:58N 59°54' E 030°14'0 0.0
2017-May-24 09:28N 59°54' E 030°14'0 0.0
2017-May-24 08:58N 59°54' E 030°14'0 0.0
2017-May-24 08:25N 59°54' E 030°14'0 0.0
2017-May-24 07:58N 59°54' E 030°14'0 0.0
2017-May-24 07:28N 59°54' E 030°14'0 0.0
2017-May-24 06:58N 59°54' E 030°14'0 0.0
2017-May-24 06:28N 59°54' E 030°14'0 0.0
2017-May-24 05:58N 59°54' E 030°14'0 0.0
2017-May-24 05:28N 59°54' E 030°14'0 0.0
2017-May-24 04:58N 59°54' E 030°14'0 0.0
2017-May-24 04:28N 59°54' E 030°14'0 0.0
2017-May-24 04:00N 59°54' E 030°14'0 1.0
2017-May-24 03:31N 59°53' E 030°13'3 6.7
2017-May-24 03:01N 59°54' E 030°06'611.5
2017-May-24 02:30N 59°56' E 029°56'611.5
2017-May-24 02:00N 59°59' E 029°46'510.7
2017-May-24 01:31N 60°01' E 029°36'712.5
2017-May-24 00:59N 60°02' E 029°23'918.4
2017-May-24 00:30N 60°02' E 029°05'815.9
2017-May-24 00:00N 60°02' E 028°49'917.7
2017-May-23 23:30N 60°02' E 028°31'1121.6
2017-May-23 23:00N 60°08' E 028°12'1122.1
2017-May-23 22:30N 60°10' E 027°51'1121.4
2017-May-23 22:00N 60°06' E 027°31'1122.3
2017-May-23 21:30N 60°01' E 027°12'1019.4
2017-May-23 21:00N 60°00' E 026°52'1121.9
2017-May-23 20:30N 60°06' E 026°34'917.9
2017-May-23 20:00N 60°14' E 026°25'1121.2
2017-May-23 19:30N 60°22' E 026°40'1019.3
2017-May-23 19:00N 60°26' E 026°57'3 6.7
2017-May-23 18:30N 60°29' E 026°57'0 0.0
2017-May-23 18:00N 60°29' E 026°57'0 0.0
2017-May-23 17:30N 60°29' E 026°57'0 0.0
2017-May-23 17:00N 60°29' E 026°57'0 0.0
2017-May-23 16:30N 60°29' E 026°57'0 0.0
2017-May-23 16:00N 60°29' E 026°57'0 0.0
2017-May-23 15:30N 60°29' E 026°57'0 0.0
2017-May-23 15:00N 60°29' E 026°57'0 0.0
2017-May-23 14:30N 60°29' E 026°57'0 0.0
2017-May-23 13:30N 60°29' E 026°57'0 0.0
2017-May-23 13:00N 60°29' E 026°57'0 0.0
2017-May-23 12:30N 60°29' E 026°57'0 0.0
2017-May-23 12:00N 60°29' E 026°57'0 0.0
2017-May-23 11:30N 60°29' E 026°57'0 0.0
2017-May-23 11:00N 60°29' E 026°57'0 0.0
2017-May-23 10:30N 60°29' E 026°57'0 0.0
2017-May-23 10:00N 60°29' E 026°57'1 2.5
2017-May-23 09:30N 60°28' E 026°58'612.0
2017-May-23 09:00N 60°24' E 026°50'1020.1
2017-May-23 08:30N 60°18' E 026°33'1020.8
2017-May-23 08:01N 60°10' E 026°20'1020.9
2017-May-23 07:31N 60°01' E 026°09'1221.2
2017-May-23 06:57N 59°53' E 025°52'5721.0
2017-May-23 04:14N 59°40' E 024°01'521.1
2017-May-23 04:00N 59°39' E 023°52'1021.1
2017-May-23 03:30N 59°35' E 023°33'1121.3
2017-May-23 03:00N 59°32' E 023°13'1121.3
2017-May-23 02:30N 59°28' E 022°53'22420.7
2017-May-22 15:43N 56°40' E 018°13'420.7
2017-May-22 15:31N 56°38' E 018°07'1120.9
2017-May-22 14:58N 56°30' E 017°51'2020.8
2017-May-22 14:01N 56°19' E 017°22'1020.8
2017-May-22 13:30N 56°12' E 017°07'1120.8
2017-May-22 12:59N 56°05' E 016°52'1020.9
2017-May-22 12:30N 55°60' E 016°37'1121.0
2017-May-22 12:01N 55°55' E 016°21'1020.9
2017-May-22 11:30N 55°49' E 016°05'1020.9
2017-May-22 11:00N 55°45' E 015°48'1020.9
2017-May-22 10:30N 55°39' E 015°32'1121.1
2017-May-22 10:00N 55°34' E 015°16'1121.1
2017-May-22 09:30N 55°29' E 014°60'1121.3
2017-May-22 09:00N 55°24' E 014°44'1020.7
2017-May-22 08:30N 55°16' E 014°31'1121.2
2017-May-22 08:00N 55°08' E 014°19'1020.9
2017-May-22 07:31N 55°01' E 014°06'1121.2
2017-May-22 07:00N 54°56' E 013°49'1121.2
2017-May-22 06:29N 54°53' E 013°31'1021.1
2017-May-22 06:00N 54°50' E 013°14'1420.7
2017-May-22 05:19N 54°46' E 012°50'819.7
2017-May-22 04:53N 54°43' E 012°36'3717.9
2017-May-22 02:48N 54°26' E 011°39'2221.0
2017-May-22 01:47N 54°36' E 011°06'621.1
2017-May-22 01:30N 54°39' E 010°58'918.6
2017-May-22 01:00N 54°47' E 010°49'1121.3
2017-May-22 00:30N 54°57' E 010°55'1019.9
2017-May-22 00:00N 55°06' E 011°02'11418.6
2017-May-21 17:53N 56°58' E 011°44'821.0
2017-May-21 17:29N 57°05' E 011°38'1020.8
2017-May-21 17:00N 57°15' E 011°31'1121.2
2017-May-21 16:31N 57°24' E 011°24'1020.4
2017-May-21 16:00N 57°32' E 011°12'1020.5
2017-May-21 15:30N 57°39' E 010°58'1020.5
2017-May-21 15:00N 57°47' E 010°45'2721.6
2017-May-21 13:45N 57°40' E 009°55'14520.5
2017-May-21 06:41N 55°53' E 006°58'420.9
2017-May-21 06:30N 55°50' E 006°55'1020.9
2017-May-21 06:00N 55°40' E 006°46'1020.9
2017-May-21 05:30N 55°31' E 006°37'1021.0
2017-May-21 05:00N 55°22' E 006°29'2021.0
2017-May-21 04:03N 55°04' E 006°11'10621.1
2017-May-20 23:02N 53°31' E 004°46'1721.5
2017-May-20 22:14N 53°15' E 004°34'521.8
2017-May-20 22:00N 53°11' E 004°30'1121.8
2017-May-20 21:30N 53°02' E 004°21'1121.5
2017-May-20 21:00N 52°52' E 004°13'1121.4
2017-May-20 20:30N 52°43' E 004°03'1121.1
2017-May-20 20:00N 52°35' E 003°52'1121.0
2017-May-20 19:30N 52°27' E 003°40'2319.9
2017-May-20 18:19N 52°06' E 003°25'720.4
2017-May-20 18:00N 51°59' E 003°24'1019.7
2017-May-20 17:30N 51°50' E 003°19'1119.4
2017-May-20 16:56N 51°40' E 003°12'819.0
2017-May-20 16:30N 51°32' E 003°07'816.0
2017-May-20 16:00N 51°25' E 003°01'1019.6
2017-May-20 15:30N 51°25' E 003°17'1019.6
2017-May-20 15:00N 51°26' E 003°32'1514.7
2017-May-20 14:01N 51°22' E 003°55'5 9.4
2017-May-20 13:30N 51°23' E 004°03'714.8
2017-May-20 13:01N 51°21' E 004°15'611.2
2017-May-20 12:31N 51°16' E 004°18'1 2.4
2017-May-20 12:01N 51°16' E 004°17'2 3.6
2017-May-20 11:30N 51°15' E 004°14'0 0.0
2017-May-20 11:00N 51°15' E 004°14'0 0.0
2017-May-20 10:30N 51°15' E 004°14'0 0.0
2017-May-20 10:00N 51°15' E 004°14'0 0.0
2017-May-20 09:30N 51°15' E 004°14'0 0.0
2017-May-20 09:00N 51°15' E 004°14'0 0.0
2017-May-20 08:30N 51°15' E 004°14'0 0.0
2017-May-20 08:00N 51°15' E 004°14'0 0.0
2017-May-20 07:30N 51°15' E 004°14'0 0.0
2017-May-20 07:00N 51°15' E 004°14'0 0.0
2017-May-20 06:30N 51°15' E 004°14'0 0.0
2017-May-20 06:00N 51°15' E 004°14'0 0.0
2017-May-20 05:30N 51°15' E 004°14'0 0.0
2017-May-20 05:00N 51°15' E 004°14'0 0.0
2017-May-20 04:30N 51°15' E 004°14'0 0.0
2017-May-20 03:57N 51°15' E 004°14'0 0.0
2017-May-20 03:30N 51°15' E 004°14'0 0.0
2017-May-20 03:00N 51°15' E 004°14'0 0.0
2017-May-20 02:30N 51°15' E 004°14'0 0.0
2017-May-20 02:00N 51°15' E 004°14'1 2.1
2017-May-20 01:30N 51°16' E 004°15'1 1.4
2017-May-20 01:00N 51°17' E 004°15'0 0.5
2017-May-20 00:30N 51°17' E 004°15'4 7.5
2017-May-20 00:01N 51°21' E 004°16'611.4
2017-May-19 23:30N 51°22' E 004°07'612.8
2017-May-19 23:01N 51°26' E 003°59'714.7
2017-May-19 22:30N 51°21' E 003°50'815.5
2017-May-19 22:00N 51°26' E 003°41'714.9
2017-May-19 21:30N 51°25' E 003°29'917.6
2017-May-19 21:00N 51°25' E 003°15'918.2
2017-May-19 20:30N 51°25' E 003°00'815.7
2017-May-19 20:00N 51°32' E 003°06'918.3
2017-May-19 19:30N 51°40' E 003°11'1019.3
2017-May-19 19:00N 51°50' E 003°16'  
Track history (hours):
 
Tides and Currents Weather Stations Pressure Air Temp Water Temp Dewpoint Dewpoint Depression Visibility Wind Speed Wind Dir Waves Ship Positions

Pulpca

Last reported at 2017-May-29 09:30 UTC. Time now 2017-May-29 09:50 UTC.
Position N 55°42' E 006°38'.

Length 205 m; draft 7.5 m.

Type: Ship (hazmat cat A). MMSI: 245097000.

Date/timePositionNaut miles runAvg speedWind from/ knotsBaromVisibWave heightAir tempDewpointWater temp
2017-May-29 09:30N 55°42' E 006°38'815.4
2017-May-29 09:00N 55°49' E 006°45'815.5
2017-May-29 08:30N 55°55' E 006°52'815.4
2017-May-29 08:00N 56°02' E 006°59'815.4
2017-May-29 07:30N 56°09' E 007°06'815.5
2017-May-29 06:59N 56°15' E 007°13'815.5
2017-May-29 06:29N 56°22' E 007°21'815.8
2017-May-29 05:59N 56°29' E 007°28'715.6
2017-May-29 05:30N 56°35' E 007°35'815.4
2017-May-29 05:00N 56°42' E 007°43'715.2
2017-May-29 04:30N 56°48' E 007°50'815.6
2017-May-29 04:00N 56°55' E 007°57'815.6
2017-May-29 03:30N 57°02' E 008°04'815.6
2017-May-29 02:59N 57°07' E 008°15'815.6
2017-May-29 02:29N 57°12' E 008°27'815.7
2017-May-29 01:57N 57°16' E 008°39'815.6
2017-May-29 01:27N 57°20' E 008°52'715.6
2017-May-29 00:58N 57°24' E 009°04'715.4
2017-May-29 00:29N 57°29' E 009°15'815.3
2017-May-29 00:00N 57°33' E 009°27'715.3
2017-May-28 23:30N 57°37' E 009°38'815.1
2017-May-28 22:59N 57°40' E 009°52'714.7
2017-May-28 22:30N 57°43' E 010°04'714.6
2017-May-28 22:00N 57°48' E 010°14'714.9
2017-May-28 21:30N 57°49' E 010°28'815.2
2017-May-28 21:00N 57°49' E 010°42'714.6
2017-May-28 20:30N 57°45' E 010°54'815.5
2017-May-28 20:00N 57°40' E 011°04'815.2
2017-May-28 19:30N 57°35' E 011°14'815.0
2017-May-28 19:00N 57°30' E 011°25'815.2
2017-May-28 18:30N 57°23' E 011°31'815.3
2017-May-28 18:00N 57°16' E 011°36'815.1
2017-May-28 17:30N 57°08' E 011°40'815.3
2017-May-28 17:00N 57°01' E 011°45'5315.1
2017-May-28 13:30N 56°14' E 012°27'816.0
2017-May-28 13:00N 56°07' E 012°33'917.2
2017-May-28 12:30N 55°59' E 012°42'918.4
2017-May-28 12:00N 55°50' E 012°44'918.4
2017-May-28 11:30N 55°41' E 012°41'611.2
2017-May-28 11:01N 55°36' E 012°42'5 9.1
2017-May-28 10:30N 55°31' E 012°42'917.3
2017-May-28 10:00N 55°23' E 012°40'815.4
2017-May-28 09:30N 55°16' E 012°48'1019.3
2017-May-28 09:00N 55°16' E 013°05'1019.9
2017-May-28 08:31N 55°15' E 013°22'1019.5
2017-May-28 08:00N 55°15' E 013°40'1020.1
2017-May-28 07:30N 55°14' E 013°57'1020.6
2017-May-28 07:01N 55°14' E 014°15'1020.1
2017-May-28 06:30N 55°22' E 014°26'1019.8
2017-May-28 06:00N 55°28' E 014°40'1020.2
2017-May-28 05:30N 55°33' E 014°56'1020.1
2017-May-28 05:00N 55°38' E 015°11'1020.5
2017-May-28 04:31N 55°43' E 015°27'1020.0
2017-May-28 04:00N 55°48' E 015°43'1020.5
2017-May-28 03:30N 55°53' E 015°58'1020.6
2017-May-28 03:00N 55°58' E 016°14'1020.6
2017-May-28 02:30N 56°03' E 016°30'1020.4
2017-May-28 02:00N 56°08' E 016°46'1020.2
2017-May-28 01:30N 56°15' E 016°60'1020.3
2017-May-28 01:00N 56°21' E 017°14'1020.4
2017-May-28 00:30N 56°27' E 017°29'1120.3
2017-May-27 23:58N 56°34' E 017°45'920.3
2017-May-27 23:30N 56°39' E 017°58'22720.3
2017-May-27 12:18N 59°32' E 022°38'621.1
2017-May-27 12:00N 59°36' E 022°48'1020.8
2017-May-27 11:30N 59°42' E 023°04'91 6.4
2017-May-26 21:12N 60°01' E 026°02'316.5
2017-May-26 21:00N 60°03' E 026°07'917.7
2017-May-26 20:30N 60°09' E 026°20'1019.0
2017-May-26 20:00N 60°17' E 026°31'713.1
2017-May-26 19:30N 60°21' E 026°40'4 8.8
2017-May-26 19:00N 60°23' E 026°48'612.4
2017-May-26 18:30N 60°27' E 026°58'2 4.8
2017-May-26 18:00N 60°29' E 026°57'0 0.0
2017-May-26 17:28N 60°29' E 026°57'0 0.0
2017-May-26 16:58N 60°29' E 026°57'0 0.0
2017-May-26 16:28N 60°29' E 026°57'0 0.0
2017-May-26 15:58N 60°29' E 026°57'0 0.0
2017-May-26 15:28N 60°29' E 026°57'0 0.0
2017-May-26 14:58N 60°29' E 026°57'0 0.0
2017-May-26 14:28N 60°29' E 026°57'0 0.0
2017-May-26 13:28N 60°29' E 026°57'0 0.0
2017-May-26 12:58N 60°29' E 026°57'0 0.0
2017-May-26 12:28N 60°29' E 026°57'0 0.0
2017-May-26 11:58N 60°29' E 026°57'0 0.0
2017-May-26 11:28N 60°29' E 026°57'0 0.0
2017-May-26 10:58N 60°29' E 026°57'0 0.0
2017-May-26 10:28N 60°29' E 026°57'0 0.0
2017-May-26 09:58N 60°29' E 026°57'0 0.0
2017-May-26 09:28N 60°29' E 026°57'0 0.0
2017-May-26 08:55N 60°29' E 026°57'0 0.0
2017-May-26 08:28N 60°29' E 026°57'0 0.0
2017-May-26 07:58N 60°29' E 026°57'0 0.0
2017-May-26 07:28N 60°29' E 026°57'0 0.0
2017-May-26 06:58N 60°29' E 026°57'0 0.0
2017-May-26 06:28N 60°29' E 026°57'0 0.0
2017-May-26 05:58N 60°29' E 026°57'0 0.0
2017-May-26 05:28N 60°29' E 026°57'0 0.0
2017-May-26 04:58N 60°29' E 026°57'0 0.0
2017-May-26 04:28N 60°29' E 026°57'0 0.0
2017-May-26 03:58N 60°29' E 026°57'0 0.0
2017-May-26 03:28N 60°29' E 026°57'0 0.0
2017-May-26 02:58N 60°29' E 026°57'0 0.0
2017-May-26 02:28N 60°29' E 026°57'0 0.0
2017-May-26 01:58N 60°29' E 026°57'0 0.0
2017-May-26 01:28N 60°29' E 026°57'0 0.0
2017-May-26 00:58N 60°29' E 026°57'0 0.0
2017-May-26 00:28N 60°29' E 026°57'0 0.0
2017-May-25 23:58N 60°29' E 026°57'0 0.0
2017-May-25 23:28N 60°29' E 026°57'0 0.0
2017-May-25 22:58N 60°29' E 026°57'0 0.0
2017-May-25 22:28N 60°29' E 026°57'0 0.0
2017-May-25 21:58N 60°29' E 026°57'0 0.0
2017-May-25 21:28N 60°29' E 026°57'0 0.0
2017-May-25 20:58N 60°29' E 026°57'0 0.0
2017-May-25 20:28N 60°29' E 026°57'0 0.0
2017-May-25 19:58N 60°29' E 026°57'0 0.0
2017-May-25 19:28N 60°29' E 026°57'0 0.0
2017-May-25 18:58N 60°29' E 026°57'0 0.0
2017-May-25 18:28N 60°29' E 026°57'0 0.0
2017-May-25 17:55N 60°29' E 026°57'0 0.0
2017-May-25 17:25N 60°29' E 026°57'0 0.0
2017-May-25 16:58N 60°29' E 026°57'0 0.0
2017-May-25 16:28N 60°29' E 026°57'0 0.0
2017-May-25 15:58N 60°29' E 026°57'0 0.0
2017-May-25 15:28N 60°29' E 026°57'0 0.0
2017-May-25 14:58N 60°29' E 026°57'0 0.0
2017-May-25 13:58N 60°29' E 026°57'0 0.0
2017-May-25 13:28N 60°29' E 026°57'0 0.0
2017-May-25 12:58N 60°29' E 026°57'0 0.0
2017-May-25 12:28N 60°29' E 026°57'0 0.0
2017-May-25 11:58N 60°29' E 026°57'0 0.0
2017-May-25 11:28N 60°29' E 026°57'0 0.0
2017-May-25 10:58N 60°29' E 026°57'0 0.0
2017-May-25 10:28N 60°29' E 026°57'0 0.0
2017-May-25 09:58N 60°29' E 026°57'0 0.0
2017-May-25 09:28N 60°29' E 026°57'0 0.0
2017-May-25 09:00N 60°29' E 026°57'0 0.4
2017-May-25 08:30N 60°29' E 026°57'5 9.1
2017-May-25 08:01N 60°25' E 026°54'714.3
2017-May-25 07:31N 60°22' E 026°41'714.4
2017-May-25 07:01N 60°17' E 026°31'713.7
2017-May-25 06:31N 60°11' E 026°24'714.1
2017-May-25 06:00N 60°07' E 026°35'714.2
2017-May-25 05:30N 60°03' E 026°47'713.5
2017-May-25 05:00N 59°60' E 026°59'613.1
2017-May-25 04:30N 60°02' E 027°12'713.9
2017-May-25 04:00N 60°05' E 027°23'714.3
2017-May-25 03:30N 60°09' E 027°36'714.0
2017-May-25 03:00N 60°12' E 027°49'814.8
2017-May-25 02:29N 60°10' E 028°03'714.4
2017-May-25 02:00N 60°08' E 028°17'714.2
2017-May-25 01:30N 60°04' E 028°29'714.2
2017-May-25 01:00N 60°03' E 028°43'714.3
2017-May-25 00:30N 60°03' E 028°57'714.4
2017-May-25 00:00N 60°02' E 029°12'813.1
2017-May-24 23:24N 60°02' E 029°28'512.3
2017-May-24 23:00N 60°00' E 029°37'611.1
2017-May-24 22:30N 59°58' E 029°47'611.4
2017-May-24 22:00N 59°56' E 029°58'510.8
2017-May-24 21:30N 59°54' E 030°08'3 6.1
2017-May-24 21:00N 59°54' E 030°14'0 0.0
2017-May-24 20:30N 59°54' E 030°14'0 0.0
2017-May-24 20:00N 59°54' E 030°14'0 0.0
2017-May-24 19:25N 59°54' E 030°14'0 0.0
2017-May-24 18:58N 59°54' E 030°14'0 0.0
2017-May-24 18:28N 59°54' E 030°14'0 0.0
2017-May-24 17:58N 59°54' E 030°14'0 0.0
2017-May-24 17:28N 59°54' E 030°14'0 0.0
2017-May-24 16:58N 59°54' E 030°14'0 0.0
2017-May-24 16:28N 59°54' E 030°14'0 0.0
2017-May-24 15:58N 59°54' E 030°14'0 0.0
2017-May-24 15:28N 59°54' E 030°14'0 0.0
2017-May-24 14:55N 59°54' E 030°14'0 0.0
2017-May-24 14:28N 59°54' E 030°14'0 0.0
2017-May-24 13:28N 59°54' E 030°14'0 0.0
2017-May-24 12:58N 59°54' E 030°14'0 0.0
2017-May-24 12:28N 59°54' E 030°14'0 0.0
2017-May-24 11:58N 59°54' E 030°14'0 0.0
2017-May-24 11:28N 59°54' E 030°14'0 0.0
2017-May-24 10:58N 59°54' E 030°14'0 0.0
2017-May-24 10:28N 59°54' E 030°14'0 0.0
2017-May-24 09:58N 59°54' E 030°14'0 0.0
2017-May-24 09:28N 59°54' E 030°14'0 0.0
2017-May-24 08:58N 59°54' E 030°14'0 0.0
2017-May-24 08:25N 59°54' E 030°14'0 0.0
2017-May-24 07:58N 59°54' E 030°14'0 0.0
2017-May-24 07:28N 59°54' E 030°14'0 0.0
2017-May-24 06:58N 59°54' E 030°14'0 0.0
2017-May-24 06:28N 59°54' E 030°14'0 0.0
2017-May-24 05:58N 59°54' E 030°14'0 0.0
2017-May-24 05:28N 59°54' E 030°14'0 0.0
2017-May-24 04:58N 59°54' E 030°14'0 0.0
2017-May-24 04:28N 59°54' E 030°14'0 0.0
2017-May-24 04:00N 59°54' E 030°14'0 1.0
2017-May-24 03:31N 59°53' E 030°13'3 6.7
2017-May-24 03:01N 59°54' E 030°06'611.5
2017-May-24 02:30N 59°56' E 029°56'611.5
2017-May-24 02:00N 59°59' E 029°46'510.7
2017-May-24 01:31N 60°01' E 029°36'712.5
2017-May-24 00:59N 60°02' E 029°23'918.4
2017-May-24 00:30N 60°02' E 029°05'815.9
2017-May-24 00:00N 60°02' E 028°49'917.7
2017-May-23 23:30N 60°02' E 028°31'1121.6
2017-May-23 23:00N 60°08' E 028°12'1122.1
2017-May-23 22:30N 60°10' E 027°51'1121.4
2017-May-23 22:00N 60°06' E 027°31'1122.3
2017-May-23 21:30N 60°01' E 027°12'1019.4
2017-May-23 21:00N 60°00' E 026°52'1121.9
2017-May-23 20:30N 60°06' E 026°34'917.9
2017-May-23 20:00N 60°14' E 026°25'1121.2
2017-May-23 19:30N 60°22' E 026°40'1019.3
2017-May-23 19:00N 60°26' E 026°57'3 6.7
2017-May-23 18:30N 60°29' E 026°57'0 0.0
2017-May-23 18:00N 60°29' E 026°57'0 0.0
2017-May-23 17:30N 60°29' E 026°57'0 0.0
2017-May-23 17:00N 60°29' E 026°57'0 0.0
2017-May-23 16:30N 60°29' E 026°57'0 0.0
2017-May-23 16:00N 60°29' E 026°57'0 0.0
2017-May-23 15:30N 60°29' E 026°57'0 0.0
2017-May-23 15:00N 60°29' E 026°57'0 0.0
2017-May-23 14:30N 60°29' E 026°57'0 0.0
2017-May-23 13:30N 60°29' E 026°57'0 0.0
2017-May-23 13:00N 60°29' E 026°57'0 0.0
2017-May-23 12:30N 60°29' E 026°57'0 0.0
2017-May-23 12:00N 60°29' E 026°57'0 0.0
2017-May-23 11:30N 60°29' E 026°57'0 0.0
2017-May-23 11:00N 60°29' E 026°57'0 0.0
2017-May-23 10:30N 60°29' E 026°57'0 0.0
2017-May-23 10:00N 60°29' E 026°57'1 2.5
2017-May-23 09:30N 60°28' E 026°58'612.0
2017-May-23 09:00N 60°24' E 026°50'1020.1
2017-May-23 08:30N 60°18' E 026°33'1020.8
2017-May-23 08:01N 60°10' E 026°20'1020.9
2017-May-23 07:31N 60°01' E 026°09'1221.2
2017-May-23 06:57N 59°53' E 025°52'5721.0
2017-May-23 04:14N 59°40' E 024°01'521.1
2017-May-23 04:00N 59°39' E 023°52'1021.1
2017-May-23 03:30N 59°35' E 023°33'1121.3
2017-May-23 03:00N 59°32' E 023°13'1121.3
2017-May-23 02:30N 59°28' E 022°53'22420.7
2017-May-22 15:43N 56°40' E 018°13'420.7
2017-May-22 15:31N 56°38' E 018°07'1120.9
2017-May-22 14:58N 56°30' E 017°51'2020.8
2017-May-22 14:01N 56°19' E 017°22'1020.8
2017-May-22 13:30N 56°12' E 017°07'1120.8
2017-May-22 12:59N 56°05' E 016°52'1020.9
2017-May-22 12:30N 55°60' E 016°37'1121.0
2017-May-22 12:01N 55°55' E 016°21'1020.9
2017-May-22 11:30N 55°49' E 016°05'1020.9
2017-May-22 11:00N 55°45' E 015°48'1020.9
2017-May-22 10:30N 55°39' E 015°32'1121.1
2017-May-22 10:00N 55°34' E 015°16'1121.1
2017-May-22 09:30N 55°29' E 014°60'1121.3
2017-May-22 09:00N 55°24' E 014°44'1020.7
2017-May-22 08:30N 55°16' E 014°31'1121.2
2017-May-22 08:00N 55°08' E 014°19'1020.9
2017-May-22 07:31N 55°01' E 014°06'1121.2
2017-May-22 07:00N 54°56' E 013°49'1121.2
2017-May-22 06:29N 54°53' E 013°31'1021.1
2017-May-22 06:00N 54°50' E 013°14'1420.7
2017-May-22 05:19N 54°46' E 012°50'819.7
2017-May-22 04:53N 54°43' E 012°36'3717.9
2017-May-22 02:48N 54°26' E 011°39'2221.0
2017-May-22 01:47N 54°36' E 011°06'621.1
2017-May-22 01:30N 54°39' E 010°58'918.6
2017-May-22 01:00N 54°47' E 010°49'1121.3
2017-May-22 00:30N 54°57' E 010°55'1019.9
2017-May-22 00:00N 55°06' E 011°02'11418.6
2017-May-21 17:53N 56°58' E 011°44'821.0
2017-May-21 17:29N 57°05' E 011°38'1020.8
2017-May-21 17:00N 57°15' E 011°31'1121.2
2017-May-21 16:31N 57°24' E 011°24'1020.4
2017-May-21 16:00N 57°32' E 011°12'1020.5
2017-May-21 15:30N 57°39' E 010°58'1020.5
2017-May-21 15:00N 57°47' E 010°45'2721.6
2017-May-21 13:45N 57°40' E 009°55'14520.5
2017-May-21 06:41N 55°53' E 006°58'420.9
2017-May-21 06:30N 55°50' E 006°55'1020.9
2017-May-21 06:00N 55°40' E 006°46'1020.9
2017-May-21 05:30N 55°31' E 006°37'1021.0
2017-May-21 05:00N 55°22' E 006°29'2021.0
2017-May-21 04:03N 55°04' E 006°11'10621.1
2017-May-20 23:02N 53°31' E 004°46'1721.5
2017-May-20 22:14N 53°15' E 004°34'521.8
2017-May-20 22:00N 53°11' E 004°30'1121.8
2017-May-20 21:30N 53°02' E 004°21'1121.5
2017-May-20 21:00N 52°52' E 004°13'1121.4
2017-May-20 20:30N 52°43' E 004°03'1121.1
2017-May-20 20:00N 52°35' E 003°52'1121.0
2017-May-20 19:30N 52°27' E 003°40'2319.9
2017-May-20 18:19N 52°06' E 003°25'720.4
2017-May-20 18:00N 51°59' E 003°24'1019.7
2017-May-20 17:30N 51°50' E 003°19'1119.4
2017-May-20 16:56N 51°40' E 003°12'819.0
2017-May-20 16:30N 51°32' E 003°07'816.0
2017-May-20 16:00N 51°25' E 003°01'1019.6
2017-May-20 15:30N 51°25' E 003°17'1019.6
2017-May-20 15:00N 51°26' E 003°32'1514.7
2017-May-20 14:01N 51°22' E 003°55'5 9.4
2017-May-20 13:30N 51°23' E 004°03'714.8
2017-May-20 13:01N 51°21' E 004°15'611.2
2017-May-20 12:31N 51°16' E 004°18'1 2.4
2017-May-20 12:01N 51°16' E 004°17'2 3.6
2017-May-20 11:30N 51°15' E 004°14'0 0.0
2017-May-20 11:00N 51°15' E 004°14'0 0.0
2017-May-20 10:30N 51°15' E 004°14'0 0.0
2017-May-20 10:00N 51°15' E 004°14'0 0.0
2017-May-20 09:30N 51°15' E 004°14'0 0.0
2017-May-20 09:00N 51°15' E 004°14'0 0.0
2017-May-20 08:30N 51°15' E 004°14'0 0.0
2017-May-20 08:00N 51°15' E 004°14'0 0.0
2017-May-20 07:30N 51°15' E 004°14'0 0.0
2017-May-20 07:00N 51°15' E 004°14'0 0.0
2017-May-20 06:30N 51°15' E 004°14'0 0.0
2017-May-20 06:00N 51°15' E 004°14'0 0.0
2017-May-20 05:30N 51°15' E 004°14'0 0.0
2017-May-20 05:00N 51°15' E 004°14'0 0.0
2017-May-20 04:30N 51°15' E 004°14'0 0.0
2017-May-20 03:57N 51°15' E 004°14'0 0.0
2017-May-20 03:30N 51°15' E 004°14'0 0.0
2017-May-20 03:00N 51°15' E 004°14'0 0.0
2017-May-20 02:30N 51°15' E 004°14'0 0.0
2017-May-20 02:00N 51°15' E 004°14'1 2.1
2017-May-20 01:30N 51°16' E 004°15'1 1.4
2017-May-20 01:00N 51°17' E 004°15'0 0.5
2017-May-20 00:30N 51°17' E 004°15'4 7.5
2017-May-20 00:01N 51°21' E 004°16'611.4
2017-May-19 23:30N 51°22' E 004°07'612.8
2017-May-19 23:01N 51°26' E 003°59'714.7
2017-May-19 22:30N 51°21' E 003°50'815.5
2017-May-19 22:00N 51°26' E 003°41'714.9
2017-May-19 21:30N 51°25' E 003°29'917.6
2017-May-19 21:00N 51°25' E 003°15'918.2
2017-May-19 20:30N 51°25' E 003°00'815.7
2017-May-19 20:00N 51°32' E 003°06'918.3
2017-May-19 19:30N 51°40' E 003°11'1019.3
2017-May-19 19:00N 51°50' E 003°16'  

Dump ship's entire track history